Arbor, Missouri
Current Conditions -  °F | °C
As of 7:53 PM on Tuesday 21 Oct 2014 (Local Time) from KCGI Reporting Station
Clear Clear  
Wind Chill: 14°   Ceiling: Unl
Heat Index: 14°   Visibility: 10mi
Dew Point:   Wind: 6mph
Humidity: 64%   Direction: 40°NE
Pressure: 30.12"   Gusts: NA
Location:  37.1651°N, 89.623°W
Report Text: KCGI 220053Z AUTO 04005KT 10SM CLR 14/07 A3012 RMK AO2 SLP199 T01390072 TSNO
Loading
Personal Weather Stations






























Interactive Weather Map
Tropical Storm Tracking
New forecast layout! Learn more

10-Day Weather Forecast

Advertisements
Track Severe Weather on mobile